Terminal Aerodrome Forecast
Issued by NWS King Salmon, AK

Home | Current Version | Previous Version | Text Only | Print | Product List | Glossary On
Versions: 1 2 3 4 5 6 7 8 9 10 11 12 13 14 15 16 17 18 19 20 21 22 23 24 25 26 27 28 29 30 31 32 33 34 35 36 37
000
FTAK31 PANC 290559 AAA
TAFAKN
TAF AMD
PAKN 290559Z 2906/3006 24012KT 2SM -DZ BR BKN008 OVC015
     FM290900 35007KT P6SM VCSH SCT025 BKN050
      TEMPO 2909/2913 BKN025
     FM291800 02011KT P6SM FEW060 SCT250=

USA.gov is the U.S. government's official web portal to all federal, state and local government web resources and services.